Terminal Aerodrome Forecast
Issued by NWS Flagstaff, AZ

Home | Current Version | Previous Version | Text Only | Print | Product List | Glossary On
Versions: 1 2 3 4 5 6 7 8 9 10 11 12 13 14 15 16 17
000
FTUS45 KFGZ 312321
TAFFLG
TAF
KFLG 312321Z 0100/0124 VRB05KT P6SM VCTS SCT050CB BKN120
     FM010300 VRB05KT P6SM SCT050 SCT120
     FM011800 21010KT P6SM SCT060=

USA.gov is the U.S. government's official web portal to all federal, state and local government web resources and services.